Time;durP1;ratioP1;P1;durP2;ratioP2;P2;SDS_P1;SDS_P2;PMS_P1;PMS_P2;Temp;Humidity;BMP_temperature;BMP_pressure;BME280_temperature;BME280_humidity;BME280_pressure;Samples;Min_cycle;Max_cycle;Signal;HPM_P1;HPM_P2
2023/03/08 00:03:28;;;;;;;9.77;7.17;;;;;;;2.91;44.06;98455.56;10349226;28;20236;-39
2023/03/08 00:08:29;;;;;;;9.57;7.47;;;;;;;3.94;43.67;98380.59;10350080;28;20230;-38
2023/03/08 00:13:31;;;;;;;10.23;7.40;;;;;;;3.61;43.62;98414.38;10353360;28;20322;-37
2023/03/08 00:18:35;;;;;;;9.50;7.57;;;;;;;3.66;43.48;98374.97;10347821;28;20548;-39
2023/03/08 00:23:37;;;;;;;9.43;6.60;;;;;;;2.73;45.12;98387.00;10356041;28;20733;-42
2023/03/08 00:28:39;;;;;;;7.33;6.07;;;;;;;2.86;45.26;98368.00;10355687;28;20243;-38
2023/03/08 00:33:41;;;;;;;10.57;7.40;;;;;;;3.15;45.05;98338.38;10357217;28;20233;-37
2023/03/08 00:38:44;;;;;;;9.43;6.73;;;;;;;2.52;45.70;98404.22;10347152;28;20233;-39
2023/03/08 00:43:46;;;;;;;10.40;6.13;;;;;;;1.74;47.13;98446.81;10349081;28;20849;-38
2023/03/08 00:48:47;;;;;;;8.07;6.50;;;;;;;0.92;48.30;98433.22;10349719;28;20237;-38
2023/03/08 00:53:49;;;;;;;8.40;6.83;;;;;;;1.31;47.61;98395.88;10350154;28;20329;-38
2023/03/08 00:58:51;;;;;;;9.63;7.83;;;;;;;3.42;45.17;98244.53;10349096;28;20241;-39
2023/03/08 01:03:53;;;;;;;11.57;9.03;;;;;;;2.76;45.87;98290.75;10355540;28;20718;-37
2023/03/08 01:08:54;;;;;;;12.27;8.20;;;;;;;3.08;45.01;98274.78;10349203;28;20237;-39
2023/03/08 01:13:56;;;;;;;10.60;8.17;;;;;;;3.38;44.82;98251.19;10352676;28;20629;-37
2023/03/08 01:19:00;;;;;;;11.83;7.97;;;;;;;2.47;46.22;98329.13;10351677;28;20236;-39
2023/03/08 01:24:02;;;;;;;13.43;9.17;;;;;;;3.10;45.13;98250.84;10351034;28;20234;-37
2023/03/08 01:29:04;;;;;;;12.27;9.03;;;;;;;3.73;44.87;98209.28;10353168;28;20225;-38
2023/03/08 01:34:05;;;;;;;10.93;8.37;;;;;;;2.44;45.94;98301.22;10353164;28;20229;-37
2023/03/08 01:39:07;;;;;;;11.13;9.00;;;;;;;2.38;46.87;98290.50;10354999;28;20245;-39
2023/03/08 01:44:18;;;;;;;11.03;9.03;;;;;;;1.48;47.73;98360.69;10359808;28;20324;-38
2023/03/08 01:49:32;;;;;;;12.37;8.63;;;;;;;2.24;46.40;98269.09;10357699;28;20237;-36
2023/03/08 01:54:55;;;;;;;11.60;8.73;;;;;;;3.49;44.89;98201.53;10359297;28;20229;-39
2023/03/08 02:00:10;;;;;;;11.53;8.13;;;;;;;2.38;46.33;98254.38;10357114;28;20240;-39
2023/03/08 02:05:13;;;;;;;13.67;9.07;;;;;;;3.01;46.45;98205.13;10350158;28;20527;-38
2023/03/08 02:10:16;;;;;;;12.43;8.73;;;;;;;2.99;46.55;98175.41;10353873;28;20241;-37
2023/03/08 02:15:20;;;;;;;12.07;8.83;;;;;;;3.27;46.10;98175.72;10341062;28;20234;-38
2023/03/08 02:20:32;;;;;;;11.50;8.63;;;;;;;2.42;47.26;98231.13;10351007;28;20303;-39
2023/03/08 02:25:33;;;;;;;10.00;7.73;;;;;;;2.26;47.22;98230.13;10350302;28;20320;-39
2023/03/08 02:30:37;;;;;;;11.27;9.03;;;;;;;2.97;46.16;98155.44;10356031;28;20282;-39
2023/03/08 02:35:41;;;;;;;12.90;9.13;;;;;;;3.42;46.05;98120.25;10349800;28;20674;-38
2023/03/08 02:40:43;;;;;;;12.77;9.30;;;;;;;2.67;46.84;98171.09;10349825;28;20319;-39
2023/03/08 02:45:45;;;;;;;11.20;8.33;;;;;;;1.43;48.51;98245.19;10355007;28;20239;-39
2023/03/08 02:50:47;;;;;;;11.20;8.33;;;;;;;1.63;48.48;98207.97;10349158;28;20276;-36
2023/03/08 02:55:49;;;;;;;11.13;8.70;;;;;;;2.67;46.78;98119.09;10351175;28;20236;-39
2023/03/08 03:00:50;;;;;;;12.77;8.40;;;;;;;1.56;47.74;98209.63;10350501;28;20252;-38
2023/03/08 03:05:52;;;;;;;12.97;8.53;;;;;;;1.92;47.67;98159.13;10357116;28;20691;-38
2023/03/08 03:10:55;;;;;;;10.43;7.93;;;;;;;2.31;46.65;98109.03;10359732;28;20243;-38
2023/03/08 03:15:56;;;;;;;11.57;8.53;;;;;;;2.77;46.88;98055.47;10356763;28;20245;-39
2023/03/08 03:21:06;;;;;;;11.90;9.07;;;;;;;3.31;45.53;98044.00;10351880;28;20249;-39
2023/03/08 03:26:14;;;;;;;13.53;9.40;;;;;;;3.17;45.40;98072.03;10350221;28;20797;-38
2023/03/08 03:31:19;;;;;;;13.93;9.50;;;;;;;3.18;45.62;98057.81;10336356;28;20241;-38
2023/03/08 03:36:21;;;;;;;13.53;10.37;;;;;;;3.40;45.00;98032.34;10349806;28;20341;-37
2023/03/08 03:41:23;;;;;;;13.07;9.20;;;;;;;2.71;46.68;98088.69;10346735;28;20238;-39
2023/03/08 03:46:25;;;;;;;13.43;9.50;;;;;;;4.23;44.52;97989.84;10365874;28;20237;-39
2023/03/08 03:51:26;;;;;;;10.83;8.57;;;;;;;3.35;45.17;98069.06;10365519;28;20233;-37
2023/03/08 03:56:28;;;;;;;13.10;8.33;;;;;;;2.97;45.75;98098.13;10362761;28;20229;-38
2023/03/08 04:01:31;;;;;;;10.90;9.07;;;;;;;3.47;45.13;98072.91;10352032;28;20233;-39
2023/03/08 04:06:33;;;;;;;11.43;7.97;;;;;;;2.53;45.95;98123.31;10312885;28;20868;-38
2023/03/08 04:11:37;;;;;;;13.47;8.97;;;;;;;3.67;45.15;98029.28;10363112;28;20250;-37
2023/03/08 04:16:39;;;;;;;14.10;8.87;;;;;;;3.25;45.45;98063.22;10359951;28;20240;-39
2023/03/08 04:21:40;;;;;;;11.03;8.73;;;;;;;2.62;46.60;98115.31;10357274;28;20245;-37
2023/03/08 04:26:42;;;;;;;16.13;11.67;;;;;;;1.99;46.80;98120.53;10355413;28;20770;-36
2023/03/08 04:31:44;;;;;;;12.37;8.73;;;;;;;2.55;46.81;98080.84;10361517;28;20228;-45
2023/03/08 04:36:46;;;;;;;10.83;8.67;;;;;;;3.42;44.85;98003.88;10356173;28;20278;-36
2023/03/08 04:41:48;;;;;;;12.37;8.10;;;;;;;4.09;44.71;97951.81;10360823;28;20260;-39
2023/03/08 04:46:50;;;;;;;11.33;8.83;;;;;;;3.88;44.44;97997.56;10352162;28;20242;-37
2023/03/08 04:51:52;;;;;;;11.60;8.73;;;;;;;3.96;44.47;97988.72;10342120;28;20237;-41
2023/03/08 04:56:54;;;;;;;12.40;8.97;;;;;;;4.28;44.24;97973.41;10352207;28;20276;-40
2023/03/08 05:01:55;;;;;;;12.40;9.00;;;;;;;4.16;43.91;97988.97;10355602;28;20239;-38
2023/03/08 05:06:57;;;;;;;11.40;8.63;;;;;;;3.70;44.39;98008.56;10352635;28;20275;-38
2023/03/08 05:11:59;;;;;;;10.60;8.07;;;;;;;2.90;45.59;98047.75;10356187;28;20248;-38
2023/03/08 05:17:01;;;;;;;10.27;8.83;;;;;;;2.99;45.65;98038.00;10350615;28;20229;-39
2023/03/08 05:22:04;;;;;;;13.93;9.93;;;;;;;3.37;45.98;97997.50;10354373;28;20936;-47
2023/03/08 05:27:07;;;;;;;12.97;9.30;;;;;;;3.45;45.34;98000.06;10351091;28;20726;-41
2023/03/08 05:32:12;;;;;;;14.30;9.30;;;;;;;2.80;46.43;98052.47;10352229;28;20240;-37
2023/03/08 05:37:14;;;;;;;12.10;8.97;;;;;;;3.28;46.15;98004.72;10350724;28;20312;-39
2023/03/08 05:42:15;;;;;;;13.67;10.10;;;;;;;3.44;45.71;97971.97;10349837;28;20320;-39
2023/03/08 05:47:17;;;;;;;12.53;8.77;;;;;;;2.88;47.09;98014.59;10355316;28;20368;-40
2023/03/08 05:52:19;;;;;;;11.97;9.07;;;;;;;2.62;46.99;98002.59;10354908;28;20233;-42
2023/03/08 05:57:21;;;;;;;12.17;8.97;;;;;;;3.06;46.90;97946.44;10354522;28;20240;-39
2023/03/08 06:02:23;;;;;;;10.70;8.67;;;;;;;2.21;47.67;98000.19;10343192;28;20241;-39
2023/03/08 06:07:24;;;;;;;11.63;7.43;;;;;;;1.89;49.14;98006.47;10353597;28;20364;-36
2023/03/08 06:12:26;;;;;;;12.43;9.13;;;;;;;2.64;48.22;97933.75;10349039;28;20276;-38
2023/03/08 06:17:28;;;;;;;12.10;9.67;;;;;;;2.61;48.21;97932.28;10350350;28;20730;-38
2023/03/08 06:22:29;;;;;;;13.43;9.73;;;;;;;1.92;50.85;97962.09;10352960;28;20233;-37
2023/03/08 06:27:31;;;;;;;12.23;9.37;;;;;;;1.48;52.46;97982.91;10345152;28;20240;-37
2023/03/08 06:32:34;;;;;;;17.77;10.20;;;;;;;2.21;52.25;97913.09;10349341;28;20632;-43
2023/03/08 06:37:36;;;;;;;11.97;8.90;;;;;;;1.94;53.81;97902.06;10345575;28;20245;-38
2023/03/08 06:42:38;;;;;;;13.20;9.97;;;;;;;2.79;53.62;97791.97;10343973;28;20241;-37
2023/03/08 06:47:42;;;;;;;13.03;7.00;;;;;;;0.60;57.49;97958.94;10346151;28;20430;-41
2023/03/08 06:52:44;;;;;;;11.23;8.33;;;;;;;1.54;56.56;97860.94;10352912;28;20237;-37
2023/03/08 06:57:45;;;;;;;9.97;7.93;;;;;;;1.23;58.47;97874.88;10352030;28;20237;-39
2023/03/08 07:02:48;;;;;;;13.07;8.90;;;;;;;2.63;56.71;97711.06;10346568;28;20255;-40
2023/03/08 07:07:50;;;;;;;13.10;8.73;;;;;;;2.94;55.65;97714.53;10342888;28;20238;-38
2023/03/08 07:12:52;;;;;;;10.87;7.63;;;;;;;2.81;55.75;97723.09;10346400;28;20255;-39
2023/03/08 07:17:55;;;;;;;12.13;8.70;;;;;;;2.22;56.06;97739.75;10349538;28;20789;-38
2023/03/08 07:23:00;;;;;;;12.50;9.50;;;;;;;2.61;56.76;97709.63;10363794;28;20233;-39
2023/03/08 07:28:02;;;;;;;9.50;7.07;;;;;;;0.34;61.15;97864.34;10363029;28;20251;-38
2023/03/08 07:33:03;;;;;;;10.97;8.57;;;;;;;2.45;59.02;97649.91;10358602;28;20719;-38
2023/03/08 07:38:05;;;;;;;11.43;8.47;;;;;;;1.61;59.36;97722.97;10360528;28;20258;-38
2023/03/08 07:43:07;;;;;;;11.13;6.93;;;;;;;1.36;60.12;97743.41;10358662;28;20643;-39
2023/03/08 07:48:09;;;;;;;12.03;8.77;;;;;;;2.48;58.38;97639.78;10356798;28;20236;-38
2023/03/08 07:53:10;;;;;;;13.47;8.50;;;;;;;2.71;57.24;97621.19;10357392;28;20727;-39
2023/03/08 07:58:12;;;;;;;11.57;8.77;;;;;;;3.33;56.57;97578.50;10349615;28;20233;-40
2023/03/08 08:03:14;;;;;;;12.57;8.60;;;;;;;3.89;55.91;97572.38;10354000;28;20233;-38
2023/03/08 08:08:15;;;;;;;11.27;8.77;;;;;;;3.60;56.87;97571.59;10352690;28;20241;-38
2023/03/08 08:13:17;;;;;;;13.70;10.20;;;;;;;4.46;54.56;97559.81;10357678;28;20242;-39
2023/03/08 08:18:19;;;;;;;11.20;8.37;;;;;;;4.25;55.06;97630.38;10343903;28;20610;-39
2023/03/08 08:23:21;;;;;;;11.63;8.10;;;;;;;5.50;52.93;97516.06;10353847;28;20604;-38
2023/03/08 08:28:24;;;;;;;11.47;9.43;;;;;;;4.94;53.74;97563.19;10348223;28;20238;-38
2023/03/08 08:33:30;;;;;;;13.77;10.93;;;;;;;4.41;55.29;97605.44;10357773;28;20756;-39
2023/03/08 08:38:31;;;;;;;13.83;8.63;;;;;;;4.17;56.85;97585.53;10358310;28;20240;-40
2023/03/08 08:43:35;;;;;;;10.83;8.53;;;;;;;3.42;58.07;97623.13;10355961;28;20233;-38
2023/03/08 08:48:37;;;;;;;13.17;9.77;;;;;;;3.43;59.00;97608.09;10351719;28;20229;-44
2023/03/08 08:53:39;;;;;;;11.53;8.43;;;;;;;4.18;57.26;97537.69;10354843;28;20237;-38
2023/03/08 08:58:41;;;;;;;13.30;10.67;;;;;;;4.19;57.27;97565.81;10351534;28;20234;-38
2023/03/08 09:03:44;;;;;;;13.43;9.53;;;;;;;4.48;56.48;97539.25;10355184;28;20236;-38
2023/03/08 09:08:50;;;;;;;13.70;9.33;;;;;;;4.57;56.36;97522.16;10350220;28;20284;-38
2023/03/08 09:13:53;;;;;;;10.70;8.97;;;;;;;4.62;56.65;97510.97;10345936;28;20241;-38
2023/03/08 09:18:56;;;;;;;12.30;9.67;;;;;;;5.72;53.96;97471.53;10356982;28;20237;-40
2023/03/08 09:24:01;;;;;;;12.17;8.93;;;;;;;5.91;53.10;97475.16;10348159;28;20328;-40
2023/03/08 09:29:03;;;;;;;12.77;9.77;;;;;;;6.71;51.69;97485.34;10352162;28;21451;-41
2023/03/08 09:34:07;;;;;;;13.47;10.83;;;;;;;7.04;51.19;97483.47;10345433;28;20230;-38
2023/03/08 09:39:12;;;;;;;13.80;9.97;;;;;;;6.44;52.05;97504.09;10342637;28;20746;-39
2023/03/08 09:44:45;;;;;;;18.30;14.30;;;;;;;6.13;53.09;97531.44;10346819;28;20347;-39
2023/03/08 09:49:51;;;;;;;15.77;12.97;;;;;;;6.17;52.68;97524.66;10353971;28;20326;-42
2023/03/08 09:54:53;;;;;;;18.20;12.67;;;;;;;6.45;52.31;97515.56;10348267;28;20249;-38
2023/03/08 10:00:01;;;;;;;13.40;10.23;;;;;;;5.65;55.14;97537.88;10352708;28;20843;-39
2023/03/08 10:05:03;;;;;;;14.77;11.33;;;;;;;5.31;55.55;97533.63;10351928;28;20235;-40
2023/03/08 10:10:38;;;;;;;13.37;9.60;;;;;;;5.40;55.93;97532.41;10355369;28;20243;-40
2023/03/08 10:15:46;;;;;;;11.60;9.77;;;;;;;4.92;57.29;97516.72;10357930;28;20244;-39
2023/03/08 10:20:48;;;;;;;13.20;10.30;;;;;;;5.77;55.16;97453.16;10349558;28;20240;-38
2023/03/08 10:25:50;;;;;;;13.07;10.00;;;;;;;6.20;54.82;97449.09;10351996;28;20228;-39
2023/03/08 10:30:57;;;;;;;16.47;10.73;;;;;;;6.41;54.94;97439.97;10349474;28;20328;-38
2023/03/08 10:36:15;;;;;;;12.53;10.33;;;;;;;6.56;55.08;97435.16;10355161;28;20233;-38
2023/03/08 10:41:17;;;;;;;14.70;10.27;;;;;;;6.41;55.90;97448.75;10346812;28;20237;-38
2023/03/08 10:46:22;;;;;;;14.30;10.40;;;;;;;6.41;56.25;97437.31;10346697;28;20248;-39
2023/03/08 10:51:27;;;;;;;12.23;9.50;;;;;;;6.76;55.68;97432.38;10345127;28;20222;-41
2023/03/08 10:56:37;;;;;;;10.07;7.50;;;;;;;6.33;57.36;97433.06;10337132;28;20288;-39
2023/03/08 11:06:36;;;;;;;7.63;6.03;;;;;;;5.61;59.86;97445.66;10466655;28;20839;-61
2023/03/08 11:11:41;;;;;;;6.80;5.40;;;;;;;5.48;60.72;97441.19;10424559;28;20239;-60
2023/03/08 11:17:06;;;;;;;6.40;5.20;;;;;;;5.84;59.47;97423.91;10425811;28;20250;-59
2023/03/08 11:22:28;;;;;;;7.00;5.30;;;;;;;6.15;59.63;97425.00;10424101;28;20750;-60
2023/03/08 11:27:30;;;;;;;6.57;4.83;;;;;;;5.52;61.41;97422.00;10421553;28;20896;-60
2023/03/08 11:32:58;;;;;;;5.73;4.63;;;;;;;6.61;59.58;97403.41;10428593;28;20706;-60
2023/03/08 11:38:23;;;;;;;5.63;3.97;;;;;;;6.37;60.03;97399.72;10412167;28;20247;-60
2023/03/08 11:43:51;;;;;;;4.33;3.90;;;;;;;6.78;60.10;97410.88;10427109;28;20228;-59
2023/03/08 11:49:02;;;;;;;4.73;4.07;;;;;;;6.97;59.73;97411.75;10421979;28;20239;-60
2023/03/08 11:54:22;;;;;;;4.50;3.57;;;;;;;6.25;61.15;97399.59;10418629;28;20737;-59
2023/03/08 11:59:43;;;;;;;4.00;3.40;;;;;;;6.67;60.71;97416.88;10428232;28;20235;-59
2023/03/08 12:04:58;;;;;;;3.63;3.33;;;;;;;6.24;60.97;97405.13;10425067;28;20226;-60
2023/03/08 12:10:11;;;;;;;2.93;2.73;;;;;;;7.25;60.89;97411.25;10418066;28;20231;-60
2023/03/08 12:15:28;;;;;;;3.50;3.20;;;;;;;7.69;59.88;97421.84;10410180;28;20293;-60
2023/03/08 12:20:36;;;;;;;3.80;3.30;;;;;;;7.44;60.74;97421.91;10402442;28;20794;-60
2023/03/08 12:25:43;;;;;;;2.87;2.60;;;;;;;7.83;59.31;97428.63;10388964;28;20243;-60
2023/03/08 12:31:00;;;;;;;2.87;2.63;;;;;;;8.57;58.05;97447.13;10395382;28;20243;-60
2023/03/08 12:36:06;;;;;;;1.93;1.83;;;;;;;7.77;59.08;97413.56;10401253;28;20711;-60
2023/03/08 12:41:22;;;;;;;2.20;2.10;;;;;;;8.69;57.69;97441.00;10389774;28;20379;-60
2023/03/08 12:46:24;;;;;;;2.47;2.30;;;;;;;8.78;57.43;97432.44;10400184;28;20228;-59
2023/03/08 12:51:32;;;;;;;2.00;1.90;;;;;;;8.46;57.27;97439.91;10394121;28;20712;-61
2023/03/08 12:56:50;;;;;;;2.30;2.20;;;;;;;9.09;56.41;97464.38;10400577;28;20325;-61
2023/03/08 13:01:57;;;;;;;2.07;1.97;;;;;;;8.85;56.50;97467.00;10391982;28;20255;-59
2023/03/08 13:07:16;;;;;;;1.97;1.87;;;;;;;9.13;56.02;97463.69;10400751;28;20267;-60
2023/03/08 13:12:49;;;;;;;2.17;2.00;;;;;;;8.92;56.16;97472.25;10390406;28;20225;-60
2023/03/08 13:17:52;;;;;;;1.97;1.87;;;;;;;9.33;56.28;97459.84;10400400;28;20246;-60
2023/03/08 13:23:12;;;;;;;3.73;2.80;;;;;;;8.78;57.35;97451.09;10396061;28;21009;-60
2023/03/08 13:28:17;;;;;;;2.60;2.40;;;;;;;9.08;56.50;97471.59;10385830;28;20239;-61
2023/03/08 13:33:32;;;;;;;2.50;2.30;;;;;;;8.49;58.24;97444.78;10388345;28;20271;-61
2023/03/08 13:38:35;;;;;;;1.60;1.50;;;;;;;7.98;58.37;97408.81;10397459;28;20291;-61
2023/03/08 13:43:37;;;;;;;2.77;2.13;;;;;;;8.97;57.38;97451.84;10390972;28;20772;-60
2023/03/08 13:48:43;;;;;;;2.03;1.93;;;;;;;9.22;56.43;97477.50;10389452;28;20886;-60
2023/03/08 13:53:45;;;;;;;2.70;2.20;;;;;;;9.30;56.74;97474.50;10392684;28;20235;-60
2023/03/08 13:58:51;;;;;;;1.97;1.87;;;;;;;8.83;58.59;97464.56;10389089;28;20319;-59
2023/03/08 14:03:54;;;;;;;3.53;2.97;;;;;;;8.81;58.28;97461.31;10396952;28;20236;-60
2023/03/08 14:09:03;;;;;;;2.67;2.23;;;;;;;9.21;57.75;97466.03;10388268;28;20247;-60
2023/03/08 14:14:11;;;;;;;1.90;1.80;;;;;;;8.94;58.48;97452.28;10384552;28;20235;-60
2023/03/08 14:19:13;;;;;;;2.60;2.40;;;;;;;9.78;56.72;97491.28;10384822;28;20251;-59
2023/03/08 14:24:21;;;;;;;2.20;2.10;;;;;;;9.48;57.43;97454.84;10388949;28;20232;-60
2023/03/08 14:29:25;;;;;;;2.33;2.13;;;;;;;10.22;56.22;97494.31;10390018;28;20228;-60
2023/03/08 14:34:34;;;;;;;2.40;2.20;;;;;;;10.06;55.69;97476.38;10394473;28;20622;-60
2023/03/08 14:39:40;;;;;;;2.00;1.90;;;;;;;9.72;56.76;97460.97;10386484;28;20703;-61
2023/03/08 14:44:50;;;;;;;2.23;2.03;;;;;;;10.06;55.13;97492.41;10389439;28;20356;-60
2023/03/08 14:50:29;;;;;;;2.53;2.10;;;;;;;10.68;55.39;97495.19;10389525;28;20274;-60
2023/03/08 14:55:34;;;;;;;2.17;2.03;;;;;;;10.59;55.29;97463.72;10393532;28;20243;-60
2023/03/08 15:00:47;;;;;;;4.90;2.30;;;;;;;10.63;54.93;97462.16;10393005;28;20229;-60
2023/03/08 15:05:48;;;;;;;2.23;2.10;;;;;;;10.41;55.43;97448.69;10376780;28;20241;-60
2023/03/08 15:10:51;;;;;;;2.07;1.87;;;;;;;10.58;54.58;97457.56;10391664;28;20243;-60
2023/03/08 15:15:52;;;;;;;3.77;3.23;;;;;;;10.55;55.02;97457.22;10389568;28;20302;-60
2023/03/08 15:20:55;;;;;;;3.57;2.47;;;;;;;10.61;55.02;97435.66;10384240;28;20237;-60
2023/03/08 15:26:02;;;;;;;2.73;2.20;;;;;;;11.11;54.00;97471.53;10370455;28;20225;-63
2023/03/08 15:31:04;;;;;;;2.33;2.13;;;;;;;10.17;55.72;97407.91;10394351;28;20241;-60
2023/03/08 15:36:09;;;;;;;1.90;1.80;;;;;;;10.65;54.70;97425.31;10381256;28;20400;-62
2023/03/08 15:41:13;;;;;;;1.77;1.67;;;;;;;10.10;55.63;97397.34;10333585;28;20269;-60
2023/03/08 15:46:15;;;;;;;2.47;2.30;;;;;;;10.52;54.93;97419.19;10367886;28;20228;-61
2023/03/08 15:51:18;;;;;;;2.43;2.23;;;;;;;10.38;54.76;97417.91;10375667;28;20291;-61
2023/03/08 15:56:21;;;;;;;2.10;1.80;;;;;;;10.92;54.46;97428.19;10382180;28;20294;-61
2023/03/08 16:01:25;;;;;;;3.03;2.73;;;;;;;11.01;53.79;97429.38;10378149;28;20658;-61
2023/03/08 16:06:28;;;;;;;2.80;2.00;;;;;;;10.64;54.49;97400.41;10391735;28;20630;-62
2023/03/08 16:11:29;;;;;;;2.83;2.60;;;;;;;11.22;53.87;97418.97;10389093;28;20241;-62
2023/03/08 16:16:33;;;;;;;4.43;3.17;;;;;;;10.74;53.97;97393.63;10373123;23;20295;-39
2023/03/08 16:21:45;;;;;;;2.43;1.90;;;;;;;10.24;54.53;97373.81;10357592;28;20255;-38
2023/03/08 16:26:47;;;;;;;1.80;1.70;;;;;;;10.30;54.79;97364.84;10405242;28;20242;-37
2023/03/08 16:31:49;;;;;;;1.90;1.80;;;;;;;11.02;54.10;97404.25;10405869;28;20242;-37
2023/03/08 16:36:51;;;;;;;1.70;1.60;;;;;;;10.63;54.96;97368.56;10396679;28;20263;-37
2023/03/08 16:41:53;;;;;;;2.20;2.10;;;;;;;10.39;55.95;97346.53;10405771;28;20594;-37
2023/03/08 16:46:55;;;;;;;2.10;2.00;;;;;;;10.65;55.05;97347.75;10402309;28;20703;-37
2023/03/08 16:51:57;;;;;;;1.87;1.77;;;;;;;10.06;55.57;97342.78;10395832;28;20229;-38
2023/03/08 16:56:59;;;;;;;3.23;1.40;;;;;;;10.54;54.97;97352.13;10404231;28;20308;-37
2023/03/08 17:02:20;;;;;;;1.80;1.70;;;;;;;11.20;53.96;97399.66;10401158;28;20240;-37
2023/03/08 17:07:22;;;;;;;1.80;1.70;;;;;;;11.26;53.37;97377.28;10402687;28;20862;-36
2023/03/08 17:12:23;;;;;;;1.67;1.57;;;;;;;10.95;54.28;97359.97;10387004;28;20232;-36
2023/03/08 17:17:25;;;;;;;1.70;1.60;;;;;;;10.38;54.11;97337.69;10389759;28;20252;-38
2023/03/08 17:22:27;;;;;;;1.80;1.70;;;;;;;10.49;54.60;97355.50;10389206;28;20252;-37
2023/03/08 17:27:28;;;;;;;1.60;1.50;;;;;;;10.79;53.64;97366.97;10389306;28;20231;-38
2023/03/08 17:32:30;;;;;;;1.40;1.40;;;;;;;10.55;53.77;97358.28;10388248;28;20240;-37
2023/03/08 17:37:40;;;;;;;1.77;1.60;;;;;;;10.13;53.93;97367.47;10391751;28;20229;-38
2023/03/08 17:42:42;;;;;;;1.70;1.60;;;;;;;10.79;54.11;97375.81;10370926;28;20484;-37
2023/03/08 17:47:44;;;;;;;1.93;1.70;;;;;;;10.67;54.62;97377.72;10395534;28;20228;-38
2023/03/08 17:52:46;;;;;;;2.80;2.00;;;;;;;10.13;56.67;97338.09;10397810;28;20237;-38
2023/03/08 17:57:47;;;;;;;1.73;1.63;;;;;;;10.22;56.62;97347.31;10396919;28;20233;-38
2023/03/08 18:02:49;;;;;;;1.97;1.87;;;;;;;10.63;55.72;97361.38;10393892;28;20360;-38
2023/03/08 18:07:51;;;;;;;1.83;1.73;;;;;;;10.46;55.77;97350.66;10405032;28;20236;-41
2023/03/08 18:12:52;;;;;;;1.67;1.57;;;;;;;11.15;53.53;97387.00;10372464;28;20239;-41
2023/03/08 18:17:54;;;;;;;1.80;1.70;;;;;;;10.02;56.11;97337.09;10394813;28;20920;-36
2023/03/08 18:22:56;;;;;;;1.60;1.50;;;;;;;10.80;55.32;97361.38;10392530;28;20233;-37
2023/03/08 18:27:57;;;;;;;1.97;1.87;;;;;;;9.59;58.09;97311.72;10389014;28;20239;-38
2023/03/08 18:32:59;;;;;;;2.20;2.00;;;;;;;10.17;57.31;97357.13;10395087;28;20224;-38
2023/03/08 18:38:01;;;;;;;2.67;2.30;;;;;;;9.38;61.43;97310.50;10393814;28;20578;-38
2023/03/08 18:43:03;;;;;;;2.23;1.67;;;;;;;9.32;61.73;97300.78;10388441;28;20241;-37
2023/03/08 18:48:05;;;;;;;2.30;1.80;;;;;;;8.20;62.86;97271.41;10401435;28;20232;-38
2023/03/08 18:53:06;;;;;;;2.10;1.90;;;;;;;9.43;61.42;97307.94;10399168;28;20235;-38
2023/03/08 18:58:08;;;;;;;2.17;2.07;;;;;;;9.27;62.87;97298.81;10395743;28;20240;-38
2023/03/08 19:03:10;;;;;;;1.80;1.70;;;;;;;7.93;65.60;97247.03;10397953;28;20232;-37
2023/03/08 19:08:12;;;;;;;2.77;2.20;;;;;;;8.78;63.58;97290.31;10396553;28;20327;-40
2023/03/08 19:13:13;;;;;;;3.20;2.10;;;;;;;9.39;61.44;97304.13;10396861;28;20236;-38
2023/03/08 19:18:15;;;;;;;2.40;2.27;;;;;;;10.66;59.20;97358.22;10402447;28;20247;-38
2023/03/08 19:23:17;;;;;;;3.80;2.50;;;;;;;9.97;60.87;97355.69;10375188;28;20235;-38
2023/03/08 19:28:18;;;;;;;3.23;2.57;;;;;;;9.37;62.85;97352.41;10405821;28;20236;-41
2023/03/08 19:33:20;;;;;;;5.27;3.00;;;;;;;9.71;61.69;97397.91;10407451;28;20224;-38
2023/03/08 19:38:31;;;;;;;5.40;2.90;;;;;;;9.02;63.47;97371.13;10408938;28;20255;-37
2023/03/08 19:43:33;;;;;;;3.07;2.43;;;;;;;9.48;62.74;97392.66;10398300;28;20228;-38
2023/03/08 19:48:36;;;;;;;4.67;3.70;;;;;;;11.03;59.65;97479.97;10401387;28;20472;-37
2023/03/08 19:53:38;;;;;;;4.00;2.47;;;;;;;10.09;61.28;97441.16;10409876;28;20220;-38
2023/03/08 19:58:39;;;;;;;4.57;3.80;;;;;;;11.10;59.36;97487.84;10418034;28;20236;-38
2023/03/08 20:03:41;;;;;;;5.20;3.60;;;;;;;12.16;56.88;97487.72;10406331;28;20247;-40
2023/03/08 20:08:43;;;;;;;4.87;3.23;;;;;;;11.39;58.05;97443.06;10402458;28;20790;-39
2023/03/08 20:13:45;;;;;;;4.83;2.50;;;;;;;11.10;58.56;97461.06;10402401;28;20252;-37
2023/03/08 20:18:48;;;;;;;6.90;4.13;;;;;;;10.67;59.98;97426.66;10348204;28;20657;-41
2023/03/08 20:23:54;;;;;;;4.30;3.57;;;;;;;9.53;62.73;97388.25;10362900;28;20253;-38
2023/03/08 20:28:57;;;;;;;4.20;3.50;;;;;;;9.41;64.34;97416.78;10357763;28;20619;-38
2023/03/08 20:33:59;;;;;;;7.43;5.47;;;;;;;10.27;61.76;97422.25;10354337;28;20233;-37
2023/03/08 20:39:01;;;;;;;6.03;4.30;;;;;;;9.96;62.01;97404.84;10364906;28;20255;-39
2023/03/08 20:44:03;;;;;;;5.10;4.07;;;;;;;10.77;59.71;97436.75;10347273;28;20579;-38
2023/03/08 20:49:04;;;;;;;4.27;2.70;;;;;;;11.28;58.37;97471.53;10362843;28;20237;-40
2023/03/08 20:54:06;;;;;;;2.77;2.57;;;;;;;11.36;59.82;97459.59;10352810;28;20620;-38
2023/03/08 20:59:09;;;;;;;2.87;2.40;;;;;;;10.98;58.87;97471.88;10360641;28;20229;-38
2023/03/08 21:04:11;;;;;;;5.87;3.43;;;;;;;10.60;60.26;97484.06;10359937;28;20221;-40
2023/03/08 21:09:13;;;;;;;3.77;2.97;;;;;;;9.87;62.87;97428.47;10359283;28;20233;-38
2023/03/08 21:14:15;;;;;;;4.60;3.00;;;;;;;9.80;63.35;97430.41;10363539;28;20279;-39
2023/03/08 21:19:17;;;;;;;4.90;3.60;;;;;;;10.69;61.01;97445.16;10357477;28;20722;-38
2023/03/08 21:24:21;;;;;;;4.77;2.30;;;;;;;9.78;63.03;97398.59;10339630;28;20638;-39
2023/03/08 21:29:24;;;;;;;2.50;2.30;;;;;;;9.58;62.98;97398.19;10352426;28;20320;-38
2023/03/08 21:34:25;;;;;;;5.00;3.37;;;;;;;11.14;60.79;97454.19;10353049;28;20233;-38
2023/03/08 21:39:27;;;;;;;4.00;2.93;;;;;;;10.00;63.42;97405.19;10346607;28;20719;-38
2023/03/08 21:44:29;;;;;;;3.87;3.07;;;;;;;10.94;60.35;97462.72;10335171;28;20770;-39
2023/03/08 21:49:34;;;;;;;4.20;3.13;;;;;;;10.52;62.14;97407.69;10342819;28;20329;-40
2023/03/08 21:54:35;;;;;;;3.17;2.80;;;;;;;9.32;64.53;97338.16;10341713;28;20230;-38
2023/03/08 21:59:37;;;;;;;4.37;2.80;;;;;;;10.77;61.56;97430.63;10341458;28;20256;-41
2023/03/08 22:04:39;;;;;;;4.67;2.50;;;;;;;10.06;64.01;97385.53;10351408;28;20233;-41
2023/03/08 22:09:41;;;;;;;2.90;2.60;;;;;;;10.77;61.81;97433.28;10357213;28;20229;-38
2023/03/08 22:14:43;;;;;;;6.13;2.60;;;;;;;10.18;64.38;97407.66;10357863;28;20238;-38
2023/03/08 22:19:45;;;;;;;5.43;3.70;;;;;;;11.28;61.02;97455.47;10362007;28;20236;-38
2023/03/08 22:24:47;;;;;;;4.33;3.10;;;;;;;11.13;60.69;97423.94;10354524;28;20263;-38
2023/03/08 22:29:48;;;;;;;4.73;2.80;;;;;;;11.55;59.46;97434.13;10391747;23;20267;-61
2023/03/08 22:34:50;;;;;;;3.87;3.13;;;;;;;11.55;59.16;97423.44;10410735;28;20244;-60
2023/03/08 22:39:52;;;;;;;2.97;2.50;;;;;;;9.71;63.78;97300.97;10401608;28;20659;-61
2023/03/08 22:44:54;;;;;;;5.40;3.10;;;;;;;9.61;65.59;97276.78;10396501;28;20248;-61
2023/03/08 22:49:55;;;;;;;5.63;2.80;;;;;;;10.20;63.99;97329.91;10409881;28;20267;-60
2023/03/08 22:54:57;;;;;;;4.60;2.60;;;;;;;10.58;63.56;97318.50;10401366;28;20232;-61
2023/03/08 22:59:59;;;;;;;3.30;2.90;;;;;;;10.59;62.54;97333.47;10402947;28;20245;-61
2023/03/08 23:05:00;;;;;;;5.50;2.80;;;;;;;9.44;65.05;97272.19;10416234;28;20224;-60
2023/03/08 23:10:03;;;;;;;3.93;3.17;;;;;;;10.34;62.58;97259.03;10402137;28;20910;-61
2023/03/08 23:15:05;;;;;;;3.50;3.20;;;;;;;11.68;59.69;97352.63;10397303;28;20755;-61
2023/03/08 23:20:08;;;;;;;6.50;3.13;;;;;;;12.54;57.53;97391.31;10390677;28;20589;-61
2023/03/08 23:25:10;;;;;;;4.67;2.77;;;;;;;11.88;58.43;97378.84;10386741;28;21538;-61
2023/03/08 23:30:14;;;;;;;4.70;2.77;;;;;;;10.70;61.26;97348.63;10395215;28;20252;-61
2023/03/08 23:35:15;;;;;;;9.73;3.90;;;;;;;11.44;59.75;97376.16;10402437;28;20232;-61
2023/03/08 23:40:17;;;;;;;5.47;3.03;;;;;;;10.52;60.94;97370.28;10394680;28;20232;-61
2023/03/08 23:45:20;;;;;;;2.97;2.37;;;;;;;8.05;65.03;97362.41;10396731;28;20227;-61